createdAt,value
2022-11-13T00:00:33.045Z,84.02
2022-11-13T00:11:01.560Z,84.22
2022-11-13T00:21:06.527Z,84.03
2022-11-13T00:31:15.720Z,84.05
2022-11-13T00:41:23.568Z,84.09
2022-11-13T00:51:30.799Z,84.16
2022-11-13T01:01:38.179Z,84.35
2022-11-13T01:11:44.423Z,84.19
2022-11-13T01:21:51.586Z,84.03
2022-11-13T01:31:58.579Z,83.93
2022-11-13T01:42:05.782Z,84.26
2022-11-13T02:02:39.108Z,84.20
2022-11-13T02:12:51.172Z,84.23
2022-11-13T02:22:57.320Z,84.28
2022-11-13T02:33:17.964Z,84.20
2022-11-13T02:43:25.041Z,84.38
2022-11-13T02:53:32.348Z,84.49
2022-11-13T03:14:06.253Z,84.45
2022-11-13T03:24:13.369Z,84.86
2022-11-13T03:34:20.480Z,84.44
2022-11-13T03:44:27.701Z,84.58
2022-11-13T03:54:34.865Z,84.35
2022-11-13T04:04:42.021Z,84.47
2022-11-13T04:14:49.040Z,84.49
2022-11-13T04:24:56.197Z,84.53
2022-11-13T04:35:03.638Z,84.45
2022-11-13T04:45:10.297Z,84.67
2022-11-13T04:55:18.206Z,84.69
2022-11-13T05:05:25.396Z,84.52
2022-11-13T05:15:32.500Z,84.50
2022-11-13T05:25:39.448Z,84.37
2022-11-13T05:35:46.409Z,84.44
2022-11-13T05:45:53.667Z,84.39
2022-11-13T05:56:01.445Z,84.48
2022-11-13T06:06:09.096Z,84.37
2022-11-13T06:16:18.332Z,84.32
2022-11-13T06:26:28.726Z,84.40
2022-11-13T06:36:37.944Z,84.55
2022-11-13T06:46:44.863Z,84.49
2022-11-13T06:56:52.061Z,84.47
2022-11-13T07:06:59.237Z,84.48
2022-11-13T07:17:10.652Z,84.25
2022-11-13T07:27:17.929Z,84.48
2022-11-13T07:37:25.236Z,84.57
2022-11-13T07:47:32.272Z,84.52
2022-11-13T07:57:39.308Z,84.40
2022-11-13T08:07:51.201Z,84.35
2022-11-13T08:17:58.705Z,84.56
2022-11-13T08:28:10.089Z,84.55
2022-11-13T08:38:20.032Z,84.80
2022-11-13T08:48:27.678Z,84.70
2022-11-13T08:58:35.200Z,84.52
2022-11-13T09:08:42.533Z,84.46
2022-11-13T09:18:50.305Z,84.58
2022-11-13T09:28:57.515Z,84.47
2022-11-13T09:39:05.137Z,84.42
2022-11-13T09:49:19.236Z,84.51
2022-11-13T09:59:25.614Z,84.34
2022-11-13T10:09:31.447Z,84.19
2022-11-13T10:19:40.993Z,84.48
2022-11-13T10:29:49.354Z,84.31
2022-11-13T10:39:56.739Z,83.86
2022-11-13T10:50:10.766Z,84.05
2022-11-13T11:00:31.312Z,83.74
2022-11-13T11:11:01.246Z,83.64
2022-11-13T11:21:07.322Z,83.62
2022-11-13T11:31:12.652Z,83.43
2022-11-13T11:41:25.942Z,83.00
2022-11-13T11:51:33.887Z,82.66
2022-11-13T12:01:47.178Z,82.61
2022-11-13T12:11:53.733Z,82.39
2022-11-13T12:21:58.347Z,82.28
2022-11-13T12:32:04.523Z,82.13
2022-11-13T12:42:13.342Z,81.90
2022-11-13T12:52:24.696Z,81.75
2022-11-13T13:02:44.032Z,81.65
2022-11-13T13:12:50.799Z,81.57
2022-11-13T13:22:58.729Z,81.53
2022-11-13T13:33:06.740Z,81.25
2022-11-13T13:43:17.646Z,81.11
2022-11-13T13:53:26.443Z,81.05
2022-11-13T14:03:33.944Z,80.96
2022-11-13T14:13:42.180Z,80.88
2022-11-13T14:23:51.777Z,80.69
2022-11-13T14:34:00.971Z,80.63
2022-11-13T14:44:06.092Z,80.61
2022-11-13T14:54:33.803Z,80.62
2022-11-13T15:04:49.559Z,80.59
2022-11-13T15:14:56.784Z,80.59
2022-11-13T15:25:03.856Z,80.73
2022-11-13T15:35:10.991Z,81.06
2022-11-13T15:45:18.204Z,81.10
2022-11-13T15:55:25.637Z,81.23
2022-11-13T16:05:31.417Z,81.51
2022-11-13T16:15:38.536Z,81.67
2022-11-13T16:25:45.158Z,81.88
2022-11-13T16:35:51.126Z,82.06
2022-11-13T16:46:00.701Z,82.32
2022-11-13T16:56:07.258Z,82.54
2022-11-13T17:06:20.595Z,82.76
2022-11-13T17:16:29.698Z,82.88
2022-11-13T17:26:35.613Z,83.01
2022-11-13T17:36:42.971Z,83.20
2022-11-13T17:46:49.543Z,83.31
2022-11-13T17:56:56.953Z,83.39
2022-11-13T18:07:04.708Z,83.58
2022-11-13T18:17:12.635Z,83.60
2022-11-13T18:27:20.105Z,83.59
2022-11-13T18:37:26.195Z,83.86
2022-11-13T18:47:33.465Z,84.27
2022-11-13T18:57:41.038Z,84.58
2022-11-13T19:07:48.350Z,84.76
2022-11-13T19:17:54.600Z,84.93
2022-11-13T19:28:01.695Z,85.40
2022-11-13T19:38:09.036Z,85.58
2022-11-13T19:48:29.117Z,85.88
2022-11-13T19:58:34.941Z,86.06
2022-11-13T20:08:42.266Z,86.25
2022-11-13T20:18:48.409Z,86.25
2022-11-13T20:28:55.379Z,86.68
2022-11-13T20:39:05.579Z,86.59
2022-11-13T20:49:15.523Z,86.85
2022-11-13T20:59:21.684Z,86.76
2022-11-13T21:09:28.871Z,87.03
2022-11-13T21:19:35.764Z,87.22
2022-11-13T21:29:43.062Z,87.04
2022-11-13T21:39:50.034Z,87.21
2022-11-13T21:49:57.058Z,87.30
2022-11-13T22:00:04.961Z,87.56
2022-11-13T22:10:12.443Z,87.84
2022-11-13T22:20:18.716Z,88.14
2022-11-13T22:30:26.133Z,88.15
2022-11-13T22:40:35.343Z,88.29
2022-11-13T22:50:42.417Z,88.33
2022-11-13T23:00:49.639Z,88.36
2022-11-13T23:10:55.865Z,88.55
2022-11-13T23:21:02.917Z,88.71
2022-11-13T23:31:07.628Z,88.68
2022-11-13T23:41:15.235Z,88.89
2022-11-13T23:51:21.455Z,89.02
